Time;durP1;ratioP1;P1;durP2;ratioP2;P2;SDS_P1;SDS_P2;PMS_P1;PMS_P2;Temp;Humidity;BMP_temperature;BMP_pressure;BME280_temperature;BME280_humidity;BME280_pressure;Samples;Min_cycle;Max_cycle;Signal;HPM_P1;HPM_P2
2023/04/24 00:02:15;;;;;;;5.25;2.38;;;11.30;99.90;;;;;;5072411;28;20076;-40
2023/04/24 00:04:44;;;;;;;4.07;1.93;;;11.30;99.90;;;;;;5072477;28;20041;-40
2023/04/24 00:07:10;;;;;;;5.65;2.15;;;11.30;99.90;;;;;;5056675;28;20301;-40
2023/04/24 00:09:36;;;;;;;4.50;2.17;;;11.40;99.90;;;;;;5055874;28;20047;-40
2023/04/24 00:12:04;;;;;;;4.73;2.30;;;11.40;99.90;;;;;;5072936;28;20044;-40
2023/04/24 00:14:30;;;;;;;4.68;2.38;;;11.40;99.90;;;;;;5072556;28;20336;-40
2023/04/24 00:16:56;;;;;;;4.82;2.30;;;11.40;99.90;;;;;;5072172;28;20510;-40
2023/04/24 00:19:22;;;;;;;4.40;2.30;;;11.40;99.90;;;;;;5058365;28;20048;-40
2023/04/24 00:21:49;;;;;;;4.20;2.30;;;11.50;99.90;;;;;;5076684;28;20048;-40
2023/04/24 00:24:17;;;;;;;4.63;2.15;;;11.50;99.90;;;;;;5076596;28;20045;-39
2023/04/24 00:26:42;;;;;;;4.63;2.30;;;11.50;99.90;;;;;;5059911;28;20395;-40
2023/04/24 00:29:08;;;;;;;4.63;2.27;;;11.50;99.90;;;;;;5076353;28;20059;-40
2023/04/24 00:31:36;;;;;;;4.50;2.20;;;11.50;99.90;;;;;;5076325;28;20451;-40
2023/04/24 00:34:03;;;;;;;4.72;2.08;;;11.50;99.90;;;;;;5059947;28;20479;-40
2023/04/24 00:36:30;;;;;;;4.80;2.30;;;11.60;99.90;;;;;;5059459;28;20048;-40
2023/04/24 00:38:56;;;;;;;4.10;2.20;;;11.60;99.90;;;;;;5075913;28;20056;-41
2023/04/24 00:41:22;;;;;;;3.67;1.80;;;11.60;99.90;;;;;;5076538;28;20056;-41
2023/04/24 00:43:48;;;;;;;2.72;1.52;;;11.60;99.90;;;;;;5059592;28;20450;-41
2023/04/24 00:46:14;;;;;;;2.78;1.10;;;11.50;99.90;;;;;;5059573;28;20041;-40
2023/04/24 00:48:40;;;;;;;1.35;0.70;;;11.50;99.90;;;;;;5059266;28;20091;-41
2023/04/24 00:51:06;;;;;;;1.70;0.70;;;11.50;99.90;;;;;;5059482;28;20440;-41
2023/04/24 00:53:32;;;;;;;0.77;0.40;;;11.40;99.90;;;;;;5076375;28;20041;-41
2023/04/24 00:55:59;;;;;;;1.90;0.60;;;11.40;99.90;;;;;;5059427;28;20544;-41
2023/04/24 00:58:25;;;;;;;0.65;0.38;;;11.30;99.90;;;;;;5058813;28;20045;-40
2023/04/24 01:00:52;;;;;;;0.90;0.30;;;11.30;99.90;;;;;;5075740;28;20096;-40
2023/04/24 01:03:26;;;;;;;0.60;0.38;;;11.20;99.90;;;;;;5075595;28;20056;-40
2023/04/24 01:05:52;;;;;;;0.75;0.38;;;11.20;99.90;;;;;;5075820;28;20079;-40
2023/04/24 01:08:19;;;;;;;0.80;0.40;;;11.20;99.90;;;;;;5075712;28;20483;-40
2023/04/24 01:10:47;;;;;;;1.70;0.40;;;11.20;99.90;;;;;;5075600;28;20479;-40
2023/04/24 01:13:13;;;;;;;1.00;0.40;;;11.20;99.90;;;;;;5075463;28;20063;-40
2023/04/24 01:15:39;;;;;;;1.15;0.32;;;11.20;99.90;;;;;;5058672;28;20036;-40
2023/04/24 01:18:05;;;;;;;0.73;0.30;;;11.10;99.90;;;;;;5058648;28;20369;-40
2023/04/24 01:20:31;;;;;;;1.13;0.47;;;11.10;99.90;;;;;;5075618;28;20130;-40
2023/04/24 01:22:57;;;;;;;;;;;11.10;99.90;;;;;;5059157;28;20056;-40
2023/04/24 01:25:24;;;;;;;1.10;0.50;;;11.10;99.90;;;;;;5075676;28;20283;-40
2023/04/24 01:27:51;;;;;;;1.15;0.43;;;11.10;99.90;;;;;;5058683;28;20049;-40
2023/04/24 01:30:17;;;;;;;0.88;0.40;;;11.10;99.90;;;;;;5074919;28;20048;-40
2023/04/24 01:32:44;;;;;;;1.10;0.40;;;11.10;99.90;;;;;;5058547;28;20041;-40
2023/04/24 01:35:10;;;;;;;0.73;0.40;;;11.10;99.90;;;;;;5058658;28;20040;-42
2023/04/24 01:37:37;;;;;;;0.93;0.40;;;11.10;99.90;;;;;;5075253;28;20044;-41
2023/04/24 01:40:07;;;;;;;0.88;0.40;;;11.10;99.90;;;;;;5074841;28;20106;-40
2023/04/24 01:42:34;;;;;;;0.65;0.30;;;11.10;99.90;;;;;;5074911;28;20563;-40
2023/04/24 01:45:00;;;;;;;0.50;0.30;;;11.10;99.90;;;;;;5074988;28;20052;-41
2023/04/24 01:47:26;;;;;;;0.82;0.43;;;11.10;99.90;;;;;;5041818;28;20081;-41
2023/04/24 01:49:52;;;;;;;1.00;0.40;;;11.10;99.90;;;;;;5058770;28;20040;-40
2023/04/24 01:52:18;;;;;;;0.73;0.50;;;11.10;99.90;;;;;;5041503;28;20048;-41
2023/04/24 01:54:44;;;;;;;1.42;0.50;;;11.10;99.90;;;;;;5074910;28;20087;-40
2023/04/24 01:57:10;;;;;;;2.10;0.77;;;11.10;99.90;;;;;;5074768;28;20044;-40
2023/04/24 01:59:36;;;;;;;1.48;0.52;;;11.10;99.90;;;;;;5057822;28;20085;-41
2023/04/24 02:02:03;;;;;;;0.77;0.55;;;11.10;99.90;;;;;;5058042;28;20049;-41
2023/04/24 02:04:28;;;;;;;1.25;0.60;;;11.10;99.90;;;;;;5057790;28;20127;-40
2023/04/24 02:06:54;;;;;;;1.88;0.80;;;11.10;99.90;;;;;;5057906;28;20133;-40
2023/04/24 02:09:20;;;;;;;1.23;0.60;;;11.10;99.90;;;;;;5074645;28;20044;-40
2023/04/24 02:11:46;;;;;;;1.20;0.67;;;11.00;99.90;;;;;;5057748;28;20102;-40
2023/04/24 02:14:12;;;;;;;1.40;0.70;;;11.00;99.90;;;;;;5057687;28;20040;-40
2023/04/24 02:16:37;;;;;;;2.20;0.80;;;11.00;99.90;;;;;;5057661;28;20325;-41
2023/04/24 02:19:03;;;;;;;2.20;1.03;;;11.00;99.90;;;;;;5074533;28;20041;-41
2023/04/24 02:21:30;;;;;;;2.17;1.00;;;11.00;99.90;;;;;;5074410;28;20048;-41
2023/04/24 02:23:57;;;;;;;2.97;1.20;;;10.90;99.90;;;;;;5074318;28;20449;-40
2023/04/24 02:26:23;;;;;;;2.13;1.00;;;10.90;99.90;;;;;;5074042;28;20104;-40
2023/04/24 02:28:48;;;;;;;2.20;1.00;;;10.90;99.90;;;;;;5074070;28;20040;-40
2023/04/24 02:31:14;;;;;;;1.70;0.77;;;10.90;99.90;;;;;;5074203;28;20308;-41
2023/04/24 02:33:40;;;;;;;2.13;0.93;;;10.90;99.90;;;;;;5074144;28;20286;-41
2023/04/24 02:36:06;;;;;;;2.35;1.00;;;10.80;99.90;;;;;;5057392;28;20052;-40
2023/04/24 02:38:31;;;;;;;1.97;1.07;;;10.80;99.90;;;;;;5074332;28;20044;-41
2023/04/24 02:40:57;;;;;;;2.40;1.40;;;10.80;99.90;;;;;;5056321;28;20056;-41
2023/04/24 02:43:23;;;;;;;2.43;1.10;;;10.80;99.90;;;;;;5090573;28;20399;-41
2023/04/24 02:45:49;;;;;;;3.13;1.40;;;10.70;99.90;;;;;;5057313;28;20047;-41
2023/04/24 02:48:14;;;;;;;3.37;1.63;;;10.70;99.90;;;;;;5040692;28;20049;-41
2023/04/24 02:50:40;;;;;;;2.55;1.15;;;10.70;99.90;;;;;;5057142;28;20349;-41
2023/04/24 02:53:06;;;;;;;2.87;1.40;;;10.60;99.90;;;;;;5073701;28;20048;-41
2023/04/24 02:55:32;;;;;;;3.40;1.50;;;10.60;99.90;;;;;;5056928;28;20051;-40
2023/04/24 02:57:57;;;;;;;3.90;1.60;;;10.60;99.90;;;;;;5073193;28;20351;-40
2023/04/24 03:00:23;;;;;;;3.13;1.70;;;10.60;99.90;;;;;;5057042;28;20050;-40
2023/04/24 03:02:49;;;;;;;3.17;1.77;;;10.60;99.90;;;;;;5074016;28;20037;-40
2023/04/24 03:05:15;;;;;;;3.97;1.80;;;10.60;99.90;;;;;;5073640;28;20085;-41
2023/04/24 03:07:41;;;;;;;3.67;1.73;;;10.60;99.90;;;;;;5040372;28;20090;-41
2023/04/24 03:10:08;;;;;;;3.25;1.80;;;10.60;99.90;;;;;;5073033;28;20099;-41
2023/04/24 03:12:34;;;;;;;3.15;1.67;;;10.60;99.90;;;;;;5073072;28;20094;-40
2023/04/24 03:15:00;;;;;;;3.90;1.63;;;10.60;99.90;;;;;;5056825;28;20048;-41
2023/04/24 03:17:25;;;;;;;3.20;1.50;;;10.60;99.90;;;;;;5056409;28;20501;-41
2023/04/24 03:19:51;;;;;;;4.67;2.50;;;10.60;99.90;;;;;;5073124;28;20295;-41
2023/04/24 03:22:17;;;;;;;3.78;1.80;;;10.60;99.90;;;;;;5056227;28;20051;-40
2023/04/24 03:24:42;;;;;;;3.93;1.87;;;10.60;99.90;;;;;;5056394;28;20127;-40
2023/04/24 03:27:08;;;;;;;3.63;1.80;;;10.60;99.90;;;;;;5056265;28;20396;-40
2023/04/24 03:29:34;;;;;;;4.33;2.00;;;10.60;99.90;;;;;;5056462;28;20040;-40
2023/04/24 03:31:59;;;;;;;3.70;1.60;;;10.60;99.90;;;;;;5056422;28;20090;-40
2023/04/24 03:34:25;;;;;;;4.88;2.00;;;10.60;99.90;;;;;;5072913;28;20559;-40
2023/04/24 03:36:52;;;;;;;4.40;2.20;;;10.60;99.90;;;;;;5072851;28;20123;-40
2023/04/24 03:39:18;;;;;;;4.07;1.90;;;10.70;99.90;;;;;;5055957;28;20384;-41
2023/04/24 03:41:44;;;;;;;4.63;2.20;;;10.60;99.90;;;;;;5088934;28;20062;-41
2023/04/24 03:44:09;;;;;;;4.60;2.23;;;10.70;99.90;;;;;;5039720;28;20491;-40
2023/04/24 03:46:35;;;;;;;4.77;2.17;;;10.70;99.90;;;;;;5072758;28;20331;-40
2023/04/24 03:49:01;;;;;;;5.20;2.97;;;10.70;99.90;;;;;;5056372;28;20071;-40
2023/04/24 03:51:27;;;;;;;4.30;2.50;;;10.70;99.90;;;;;;5056251;28;20094;-40
2023/04/24 03:53:53;;;;;;;;;;;10.70;99.90;;;;;;5073397;28;20067;-41
2023/04/24 03:56:19;;;;;;;5.57;2.80;;;10.60;99.90;;;;;;5072659;28;20351;-41
2023/04/24 03:58:45;;;;;;;6.50;3.35;;;10.60;99.90;;;;;;5056804;28;20063;-41
2023/04/24 04:01:11;;;;;;;6.83;3.50;;;10.60;99.90;;;;;;5056038;28;20048;-40
2023/04/24 04:03:37;;;;;;;6.38;3.45;;;10.60;99.90;;;;;;5039589;28;20097;-40
2023/04/24 04:06:03;;;;;;;6.83;3.43;;;10.60;99.90;;;;;;5056116;28;20131;-40
2023/04/24 04:08:28;;;;;;;6.70;3.77;;;10.60;99.90;;;;;;5072684;28;20148;-41
2023/04/24 04:10:54;;;;;;;7.07;3.80;;;10.60;99.90;;;;;;5072567;28;20373;-41
2023/04/24 04:13:20;;;;;;;8.17;4.03;;;10.60;99.90;;;;;;5072842;28;20073;-40
2023/04/24 04:15:46;;;;;;;7.90;4.03;;;10.70;99.90;;;;;;5055953;28;20044;-40
2023/04/24 04:18:11;;;;;;;7.20;4.33;;;10.60;99.90;;;;;;5055442;28;20047;-40
2023/04/24 04:20:37;;;;;;;6.87;4.13;;;10.70;99.90;;;;;;5039200;28;20056;-40
2023/04/24 04:23:03;;;;;;;7.83;4.40;;;10.60;99.90;;;;;;5055808;28;20135;-40
2023/04/24 04:25:28;;;;;;;7.40;4.30;;;10.70;99.90;;;;;;5055747;28;20480;-41
2023/04/24 04:27:54;;;;;;;7.45;4.32;;;10.60;99.90;;;;;;5055970;28;20510;-40
2023/04/24 04:30:21;;;;;;;7.50;4.60;;;10.70;99.90;;;;;;5022784;28;20044;-40
2023/04/24 04:32:47;;;;;;;;;;;10.60;99.90;;;;;;5072935;28;20275;-40
2023/04/24 04:35:12;;;;;;;8.00;4.07;;;10.60;99.90;;;;;;5055612;28;20007;-40
2023/04/24 04:37:39;;;;;;;7.23;3.90;;;10.60;99.90;;;;;;5072140;28;20086;-40
2023/04/24 04:40:06;;;;;;;7.60;4.03;;;10.60;99.90;;;;;;5055399;28;20053;-43
2023/04/24 04:42:32;;;;;;;;;;;10.60;99.90;;;;;;5072825;28;20059;-41
2023/04/24 04:44:58;;;;;;;6.10;3.63;;;10.60;99.90;;;;;;5056135;28;19920;-40
2023/04/24 04:47:24;;;;;;;6.20;3.47;;;10.60;99.90;;;;;;5055445;28;20372;-40
2023/04/24 04:49:51;;;;;;;6.13;3.65;;;10.60;99.90;;;;;;5055554;28;20088;-40
2023/04/24 04:52:18;;;;;;;5.80;3.25;;;10.60;99.90;;;;;;5072004;28;20045;-40
2023/04/24 04:54:43;;;;;;;6.57;3.10;;;10.60;99.90;;;;;;5055508;28;20037;-40
2023/04/24 04:57:09;;;;;;;5.60;3.40;;;10.60;99.90;;;;;;5071820;28;20113;-40
2023/04/24 04:59:35;;;;;;;4.90;2.78;;;10.60;99.90;;;;;;5038915;28;20052;-40
2023/04/24 05:02:01;;;;;;;5.82;3.58;;;10.50;99.90;;;;;;5055401;28;20395;-38
2023/04/24 05:04:27;;;;;;;6.03;3.37;;;10.50;99.90;;;;;;5074277;28;20055;-39
2023/04/24 05:06:52;;;;;;;5.40;3.20;;;10.50;99.90;;;;;;5076853;28;20498;-40
2023/04/24 05:09:18;;;;;;;5.33;2.87;;;10.50;99.90;;;;;;5059118;28;20466;-40
2023/04/24 05:11:44;;;;;;;5.10;2.80;;;10.50;99.90;;;;;;5075719;28;20131;-39
2023/04/24 05:14:10;;;;;;;4.53;2.53;;;10.40;99.90;;;;;;5075676;28;20071;-39
2023/04/24 05:16:37;;;;;;;5.10;2.60;;;10.40;99.90;;;;;;5076511;28;20102;-39
2023/04/24 05:19:02;;;;;;;;;;;10.40;99.90;;;;;;5077101;28;20482;-39
2023/04/24 05:21:28;;;;;;;3.85;1.85;;;10.40;99.90;;;;;;5075683;28;19963;-40
2023/04/24 05:23:53;;;;;;;4.47;1.20;;;10.40;99.90;;;;;;5075291;28;20040;-40
2023/04/24 05:26:19;;;;;;;3.50;1.50;;;10.50;99.90;;;;;;5076448;28;20048;-39
2023/04/24 05:28:45;;;;;;;4.07;1.83;;;10.50;99.90;;;;;;5075926;28;20097;-40
2023/04/24 05:31:12;;;;;;;3.53;1.70;;;10.50;99.90;;;;;;5075776;28;20048;-40
2023/04/24 05:33:37;;;;;;;4.88;1.83;;;10.60;99.90;;;;;;5075324;28;20058;-40
2023/04/24 05:36:05;;;;;;;3.63;1.50;;;10.60;99.90;;;;;;5075385;28;20044;-40
2023/04/24 05:38:31;;;;;;;4.07;1.70;;;10.70;99.90;;;;;;5074669;28;20098;-40
2023/04/24 05:40:56;;;;;;;4.13;1.65;;;10.70;99.90;;;;;;5075974;28;20480;-40
2023/04/24 05:43:22;;;;;;;4.53;1.87;;;10.70;99.90;;;;;;5075151;28;20079;-40
2023/04/24 05:45:48;;;;;;;4.23;1.70;;;10.70;99.90;;;;;;5075205;28;20048;-40
2023/04/24 05:48:13;;;;;;;4.77;1.70;;;10.70;99.90;;;;;;5075042;28;20053;-40
2023/04/24 05:50:39;;;;;;;6.03;1.90;;;10.70;99.90;;;;;;5074931;28;20038;-40
2023/04/24 05:53:06;;;;;;;5.55;1.92;;;10.70;99.90;;;;;;5074903;28;20155;-40
2023/04/24 05:55:32;;;;;;;4.60;1.75;;;10.70;99.90;;;;;;5059051;28;20060;-40
2023/04/24 05:57:58;;;;;;;4.03;1.58;;;10.70;99.90;;;;;;5076227;28;20069;-40
2023/04/24 06:00:24;;;;;;;5.10;1.90;;;10.70;99.90;;;;;;5075739;28;20131;-40
2023/04/24 06:02:51;;;;;;;4.72;1.80;;;10.70;99.90;;;;;;5041507;28;20556;-40
2023/04/24 06:05:17;;;;;;;3.67;1.38;;;10.70;99.90;;;;;;5074748;28;20052;-41
2023/04/24 06:07:43;;;;;;;3.50;1.52;;;10.70;99.90;;;;;;5074460;28;20510;-41
2023/04/24 06:10:09;;;;;;;3.83;1.47;;;10.60;99.90;;;;;;5074882;28;20048;-42
2023/04/24 06:12:35;;;;;;;3.33;1.60;;;10.60;99.90;;;;;;5074569;28;20084;-40
2023/04/24 06:15:01;;;;;;;3.13;1.30;;;10.60;99.90;;;;;;5074542;28;20103;-41
2023/04/24 06:17:26;;;;;;;4.00;1.70;;;10.50;99.90;;;;;;5057034;28;20066;-42
2023/04/24 06:19:52;;;;;;;3.50;1.47;;;10.50;99.90;;;;;;5074512;28;20132;-40
2023/04/24 06:22:18;;;;;;;5.97;2.30;;;10.50;99.90;;;;;;5074426;28;20377;-42
2023/04/24 06:24:43;;;;;;;6.47;1.93;;;10.50;99.90;;;;;;5074468;28;20044;-41
2023/04/24 06:27:09;;;;;;;4.67;2.23;;;10.40;99.90;;;;;;5074350;28;20040;-40
2023/04/24 06:29:36;;;;;;;5.80;2.58;;;10.40;99.90;;;;;;5074164;28;20075;-42
2023/04/24 06:32:02;;;;;;;5.93;2.35;;;10.40;99.90;;;;;;5074209;28;20480;-40
2023/04/24 06:34:28;;;;;;;6.17;2.30;;;10.40;99.90;;;;;;5073950;28;20051;-40
2023/04/24 06:36:54;;;;;;;3.83;1.70;;;10.40;99.90;;;;;;5074820;28;20040;-41
2023/04/24 06:39:20;;;;;;;4.90;2.42;;;10.40;99.90;;;;;;5075044;28;20056;-40
2023/04/24 06:41:47;;;;;;;;;;;10.40;99.90;;;;;;5074254;28;20100;-40
2023/04/24 06:44:14;;;;;;;4.45;1.70;;;10.40;99.90;;;;;;5074366;28;19924;-40
2023/04/24 06:46:40;;;;;;;3.30;1.52;;;10.40;99.90;;;;;;5074863;28;20045;-41
2023/04/24 06:49:06;;;;;;;5.13;2.08;;;10.40;99.90;;;;;;5074972;28;20102;-42
2023/04/24 06:51:32;;;;;;;3.23;1.47;;;10.40;99.90;;;;;;5073607;28;20048;-40
2023/04/24 06:53:59;;;;;;;3.50;1.33;;;10.40;99.90;;;;;;5074087;28;20123;-41
2023/04/24 06:56:25;;;;;;;4.28;1.30;;;10.40;99.90;;;;;;5073428;28;20436;-40
2023/04/24 06:58:51;;;;;;;;;;;10.40;99.90;;;;;;5074063;28;20102;-40
2023/04/24 07:01:17;;;;;;;1.85;0.80;;;10.40;99.90;;;;;;5073666;28;20322;-40
2023/04/24 07:03:43;;;;;;;1.90;0.70;;;10.40;99.90;;;;;;5073658;28;20052;-40
2023/04/24 07:06:11;;;;;;;2.30;0.97;;;10.40;99.90;;;;;;5074383;28;20053;-40
2023/04/24 07:08:37;;;;;;;1.48;0.63;;;10.40;99.90;;;;;;5073658;28;20461;-40
2023/04/24 07:11:03;;;;;;;1.27;0.70;;;10.40;99.90;;;;;;5074892;28;20135;-41
2023/04/24 07:13:28;;;;;;;1.50;0.70;;;10.40;99.90;;;;;;5073151;28;20396;-40
2023/04/24 07:15:56;;;;;;;1.33;0.60;;;10.40;99.90;;;;;;5074423;28;20055;-40
2023/04/24 07:18:22;;;;;;;1.15;0.57;;;10.40;99.90;;;;;;5056423;28;20303;-39
2023/04/24 07:20:50;;;;;;;3.63;0.68;;;10.40;99.90;;;;;;5056534;28;20092;-39
2023/04/24 07:23:16;;;;;;;1.38;0.52;;;10.40;99.90;;;;;;5074199;28;20057;-39
2023/04/24 07:25:42;;;;;;;2.05;0.88;;;10.40;99.90;;;;;;5073148;28;20052;-40
2023/04/24 07:28:07;;;;;;;2.63;0.80;;;10.40;99.90;;;;;;5072690;28;20075;-41
2023/04/24 07:30:33;;;;;;;2.50;1.00;;;10.40;99.90;;;;;;5056570;28;20040;-40
2023/04/24 07:32:59;;;;;;;2.10;1.00;;;10.40;99.90;;;;;;5073202;28;20450;-40
2023/04/24 07:35:26;;;;;;;2.30;0.90;;;10.40;99.90;;;;;;5072877;28;20044;-40
2023/04/24 07:37:55;;;;;;;;;;;10.30;99.90;;;;;;5073284;28;20040;-39
2023/04/24 07:40:21;;;;;;;3.22;1.08;;;10.30;99.90;;;;;;5074047;28;19928;-41
2023/04/24 07:42:50;;;;;;;;;;;10.20;99.90;;;;;;5073428;28;20131;-40
2023/04/24 07:45:16;;;;;;;4.05;1.00;;;10.20;99.90;;;;;;5056454;28;19965;-39
2023/04/24 07:47:45;;;;;;;3.67;1.47;;;10.20;99.90;;;;;;5039716;28;20492;-40
2023/04/24 07:50:12;;;;;;;4.53;1.45;;;10.20;99.90;;;;;;5039805;28;20295;-39
2023/04/24 07:52:38;;;;;;;5.03;1.60;;;10.10;99.90;;;;;;5072873;28;20055;-41
2023/04/24 07:55:04;;;;;;;3.40;1.38;;;10.10;99.90;;;;;;5072803;28;20044;-39
2023/04/24 07:57:30;;;;;;;3.45;1.50;;;10.10;99.90;;;;;;5056176;28;20048;-40
2023/04/24 07:59:56;;;;;;;3.40;1.40;;;10.10;99.90;;;;;;5055746;28;20036;-40
2023/04/24 08:02:26;;;;;;;4.13;1.83;;;10.00;99.90;;;;;;5072618;28;20071;-40
2023/04/24 08:04:53;;;;;;;4.97;1.83;;;10.00;99.90;;;;;;5073675;28;20529;-40
2023/04/24 08:07:19;;;;;;;6.03;2.53;;;10.00;99.90;;;;;;5056020;28;20055;-40
2023/04/24 08:09:45;;;;;;;8.02;3.20;;;10.00;99.90;;;;;;5073456;28;20468;-40
2023/04/24 08:12:11;;;;;;;7.07;3.20;;;10.00;99.90;;;;;;5055494;28;20100;-40
2023/04/24 08:14:36;;;;;;;6.73;3.23;;;9.90;99.90;;;;;;5055780;28;20080;-40
2023/04/24 08:17:03;;;;;;;7.90;4.13;;;9.90;99.90;;;;;;5072067;28;20047;-40
2023/04/24 08:19:29;;;;;;;7.63;3.78;;;9.90;99.90;;;;;;5039237;28;20048;-40
2023/04/24 08:21:54;;;;;;;7.70;3.67;;;9.80;99.90;;;;;;5055945;28;20056;-40
2023/04/24 08:24:20;;;;;;;10.43;4.30;;;9.80;99.90;;;;;;5072708;28;20566;-40
2023/04/24 08:26:46;;;;;;;8.83;4.40;;;9.80;99.90;;;;;;5039633;28;20041;-41
2023/04/24 08:29:12;;;;;;;8.80;4.30;;;9.80;99.90;;;;;;5072400;28;20040;-40
2023/04/24 08:31:37;;;;;;;10.33;4.83;;;9.80;99.90;;;;;;5072057;28;20048;-41
2023/04/24 08:34:03;;;;;;;11.00;5.13;;;9.80;99.90;;;;;;5073451;28;20109;-40
2023/04/24 08:36:30;;;;;;;8.73;4.77;;;9.80;99.90;;;;;;5055438;28;20369;-40
2023/04/24 08:38:56;;;;;;;11.15;5.22;;;9.80;99.90;;;;;;5072619;28;20047;-40
2023/04/24 08:41:22;;;;;;;11.97;5.47;;;9.80;99.90;;;;;;5076047;28;20057;-40
2023/04/24 08:43:49;;;;;;;9.70;4.75;;;9.80;99.90;;;;;;5077109;28;20048;-41
2023/04/24 08:46:16;;;;;;;9.50;5.20;;;9.80;99.90;;;;;;5075960;28;20049;-40
2023/04/24 08:48:42;;;;;;;10.98;4.47;;;9.80;99.90;;;;;;5076234;28;20136;-40
2023/04/24 08:51:08;;;;;;;11.18;5.30;;;9.70;99.90;;;;;;5076156;28;20463;-40
2023/04/24 08:53:35;;;;;;;9.65;4.40;;;9.80;99.90;;;;;;5076913;28;20475;-40
2023/04/24 08:56:02;;;;;;;10.20;4.50;;;9.80;99.90;;;;;;5076975;28;20056;-40
2023/04/24 08:58:28;;;;;;;9.02;4.60;;;9.70;99.90;;;;;;5076765;28;20105;-39
2023/04/24 09:00:58;;;;;;;10.32;4.40;;;9.60;99.90;;;;;;5075832;28;20059;-40
2023/04/24 09:03:26;;;;;;;11.57;4.82;;;9.60;99.90;;;;;;5076287;28;20088;-40
2023/04/24 09:05:54;;;;;;;9.93;4.85;;;9.60;99.90;;;;;;5076991;28;20510;-39
2023/04/24 09:08:21;;;;;;;10.95;5.15;;;9.50;99.90;;;;;;5075703;28;20048;-40
2023/04/24 09:10:46;;;;;;;;;;;9.50;99.90;;;;;;5076162;28;20469;-40
2023/04/24 09:13:12;;;;;;;10.77;5.63;;;9.40;99.90;;;;;;5058977;28;19920;-39
2023/04/24 09:15:39;;;;;;;10.57;5.40;;;9.40;99.90;;;;;;5075228;28;20049;-40
2023/04/24 09:18:05;;;;;;;13.20;5.90;;;9.40;99.90;;;;;;5075332;28;20072;-39
2023/04/24 09:20:32;;;;;;;11.93;5.15;;;9.40;99.90;;;;;;5075626;28;20161;-39
2023/04/24 09:22:58;;;;;;;12.73;5.53;;;9.40;99.90;;;;;;5075407;28;20186;-40
2023/04/24 09:25:35;;;;;;;8.73;4.72;;;9.40;99.90;;;;;;5076472;28;20076;-40
2023/04/24 09:28:06;;;;;;;;;;;9.40;99.90;;;;;;5075627;28;20056;-39
2023/04/24 09:30:32;;;;;;;8.18;4.40;;;9.40;99.90;;;;;;5075686;28;19927;-40
2023/04/24 09:33:14;;;;;;;7.43;3.90;;;9.30;99.90;;;;;;5075327;28;20045;-40
2023/04/24 09:35:50;;;;;;;7.20;4.05;;;9.40;99.90;;;;;;5076279;28;20043;-39
2023/04/24 09:38:16;;;;;;;9.80;3.67;;;9.30;99.90;;;;;;5058299;28;20040;-43
2023/04/24 09:40:42;;;;;;;7.80;3.80;;;9.40;99.90;;;;;;5041686;28;20055;-39
2023/04/24 09:43:11;;;;;;;7.07;3.90;;;9.40;99.90;;;;;;5075264;28;20057;-39
2023/04/24 09:45:39;;;;;;;9.32;4.00;;;9.40;99.90;;;;;;5076144;28;20037;-39
2023/04/24 09:48:06;;;;;;;6.03;3.20;;;9.40;99.90;;;;;;5058617;28;20098;-39
2023/04/24 09:50:34;;;;;;;6.75;3.45;;;9.40;99.90;;;;;;5075877;28;20127;-39
2023/04/24 09:53:02;;;;;;;7.88;3.97;;;9.40;99.90;;;;;;5075800;28;20047;-39
2023/04/24 09:55:28;;;;;;;6.72;3.42;;;9.40;99.90;;;;;;5058315;28;20159;-39
2023/04/24 09:58:05;;;;;;;6.60;3.30;;;9.40;99.90;;;;;;5075898;28;20108;-39
2023/04/24 10:00:32;;;;;;;5.47;2.67;;;9.40;99.90;;;;;;5058156;28;20545;-39
2023/04/24 10:03:00;;;;;;;7.00;2.85;;;9.40;99.90;;;;;;5075890;28;20040;-40
2023/04/24 10:05:35;;;;;;;8.43;3.08;;;9.40;99.90;;;;;;5074671;28;20087;-40
2023/04/24 10:08:02;;;;;;;7.47;2.80;;;9.30;99.90;;;;;;5075775;28;20499;-40
2023/04/24 10:10:29;;;;;;;5.65;2.50;;;9.30;99.90;;;;;;5074704;28;20131;-40
2023/04/24 10:12:55;;;;;;;8.07;3.10;;;9.30;99.90;;;;;;5074715;28;20060;-39
2023/04/24 10:15:22;;;;;;;6.90;3.03;;;9.30;99.90;;;;;;5075590;28;20102;-40
2023/04/24 10:17:54;;;;;;;5.93;2.70;;;9.30;99.90;;;;;;5057490;28;20127;-39
2023/04/24 10:20:23;;;;;;;8.02;2.85;;;9.40;99.90;;;;;;5075496;28;20049;-40
2023/04/24 10:22:51;;;;;;;5.35;2.65;;;9.40;99.90;;;;;;5075686;28;20044;-40
2023/04/24 10:25:21;;;;;;;7.32;2.47;;;9.50;99.90;;;;;;5075439;28;20056;-40
2023/04/24 10:27:48;;;;;;;6.63;2.17;;;9.60;99.90;;;;;;5075627;28;20045;-40
2023/04/24 10:30:14;;;;;;;5.78;2.20;;;9.60;99.90;;;;;;5057577;28;20091;-39
2023/04/24 10:32:40;;;;;;;3.95;1.83;;;9.70;99.90;;;;;;5074142;28;20048;-40
2023/04/24 10:35:10;;;;;;;5.37;2.10;;;9.70;99.90;;;;;;5075200;28;20044;-39
2023/04/24 10:37:39;;;;;;;4.13;1.90;;;9.70;99.90;;;;;;5075175;28;20306;-39
2023/04/24 10:40:07;;;;;;;3.53;1.80;;;9.80;99.90;;;;;;5074986;28;20051;-40
2023/04/24 10:42:34;;;;;;;7.20;1.55;;;9.90;99.90;;;;;;5074889;28;20483;-40
2023/04/24 10:45:04;;;;;;;4.07;1.25;;;10.00;99.90;;;;;;5057468;28;20044;-39
2023/04/24 10:47:39;;;;;;;5.45;1.88;;;10.00;99.90;;;;;;5057344;28;20044;-40
2023/04/24 10:50:09;;;;;;;4.78;1.95;;;10.00;99.90;;;;;;5058551;28;20511;-39
2023/04/24 10:52:51;;;;;;;5.35;1.60;;;10.00;99.90;;;;;;5074778;28;20045;-40
2023/04/24 10:55:36;;;;;;;4.28;1.60;;;10.00;99.90;;;;;;5057270;28;20052;-39
2023/04/24 10:58:05;;;;;;;4.72;1.40;;;10.00;99.90;;;;;;5073377;28;20055;-40
2023/04/24 11:00:31;;;;;;;3.28;1.15;;;10.00;99.90;;;;;;5057104;28;20041;-39
2023/04/24 11:02:57;;;;;;;7.87;3.60;;;10.10;99.90;;;;;;5073127;28;20048;-40
2023/04/24 11:05:55;;;;;;;3.25;1.30;;;10.10;99.90;;;;;;5073488;28;20128;-39
2023/04/24 11:08:26;;;;;;;4.68;1.48;;;10.10;99.90;;;;;;5090462;28;20408;-39
2023/04/24 11:10:59;;;;;;;4.10;1.65;;;10.20;99.90;;;;;;5074511;28;20041;-40
2023/04/24 11:13:27;;;;;;;5.07;1.20;;;10.10;99.90;;;;;;5073486;28;20040;-40
2023/04/24 11:16:34;;;;;;;2.47;0.98;;;10.20;99.90;;;;;;5074378;28;20049;-39
2023/04/24 11:19:24;;;;;;;3.15;1.08;;;10.20;99.90;;;;;;5074445;28;20131;-40
2023/04/24 11:22:01;;;;;;;6.68;1.58;;;10.20;99.90;;;;;;5067474;28;20068;-40
2023/04/24 11:24:39;;;;;;;3.55;1.02;;;10.30;99.90;;;;;;5056538;28;20078;-40
2023/04/24 11:27:04;;;;;;;3.33;1.65;;;10.30;99.90;;;;;;5073051;28;20052;-40
2023/04/24 11:29:49;;;;;;;3.90;1.00;;;10.40;99.90;;;;;;5090122;28;20051;-39
2023/04/24 11:32:38;;;;;;;4.30;0.90;;;10.30;99.90;;;;;;5073027;28;20166;-39
2023/04/24 11:35:13;;;;;;;3.47;1.42;;;10.30;99.90;;;;;;5056317;28;20073;-40
2023/04/24 11:37:41;;;;;;;6.13;3.60;;;10.30;99.90;;;;;;5074196;28;20048;-40
2023/04/24 11:40:09;;;;;;;5.88;2.13;;;10.20;99.90;;;;;;5073062;28;20052;-40
2023/04/24 11:42:36;;;;;;;3.40;1.25;;;10.20;99.90;;;;;;5072652;28;20056;-40
2023/04/24 11:45:08;;;;;;;9.63;2.85;;;10.20;99.90;;;;;;5072992;28;20514;-40
2023/04/24 11:47:34;;;;;;;5.47;1.77;;;10.20;99.90;;;;;;5072873;28;20052;-40
2023/04/24 11:50:00;;;;;;;10.33;2.30;;;10.20;99.90;;;;;;5073812;28;20051;-39
2023/04/24 11:52:27;;;;;;;4.43;1.42;;;10.20;99.90;;;;;;5056325;28;20044;-39
2023/04/24 11:54:53;;;;;;;4.10;1.13;;;10.10;99.90;;;;;;5073861;28;20051;-39
2023/04/24 11:57:26;;;;;;;5.17;1.47;;;10.10;99.90;;;;;;5072631;28;20124;-39
2023/04/24 11:59:52;;;;;;;4.53;1.17;;;10.10;99.90;;;;;;5072703;28;20071;-40
2023/04/24 12:02:25;;;;;;;4.57;1.10;;;10.00;99.90;;;;;;5039507;28;20048;-40
2023/04/24 12:04:52;;;;;;;4.60;1.50;;;10.00;99.90;;;;;;5074174;28;20278;-39
2023/04/24 12:07:18;;;;;;;4.30;1.10;;;9.90;99.90;;;;;;5072396;28;20047;-39
2023/04/24 12:09:58;;;;;;;7.77;2.13;;;9.90;99.90;;;;;;5073058;28;20045;-40
2023/04/24 12:12:28;;;;;;;7.50;2.30;;;9.90;99.90;;;;;;5073630;28;20088;-40
2023/04/24 12:14:58;;;;;;;5.28;1.45;;;9.80;99.90;;;;;;5072554;28;20399;-39
2023/04/24 12:17:26;;;;;;;6.22;1.40;;;9.80;99.90;;;;;;5073593;28;20098;-39
2023/04/24 12:19:51;;;;;;;4.60;0.73;;;9.70;99.90;;;;;;5073452;28;20090;-39
2023/04/24 12:22:17;;;;;;;5.07;1.37;;;9.60;99.90;;;;;;5072638;28;20044;-39
2023/04/24 12:24:59;;;;;;;3.60;1.10;;;9.60;99.90;;;;;;5073507;28;20487;-40
2023/04/24 12:27:25;;;;;;;1.85;0.93;;;9.50;99.90;;;;;;5072357;28;20574;-40
2023/04/24 12:29:58;;;;;;;2.33;0.85;;;9.40;99.90;;;;;;5073261;28;20491;-40
2023/04/24 12:32:25;;;;;;;2.50;0.65;;;9.40;99.90;;;;;;5073320;28;20044;-40
2023/04/24 12:34:54;;;;;;;5.15;0.90;;;9.40;99.90;;;;;;5073426;28;20089;-39
2023/04/24 12:37:19;;;;;;;2.42;0.75;;;9.40;99.90;;;;;;5073216;28;20391;-40
2023/04/24 12:40:08;;;;;;;2.80;0.63;;;9.40;99.90;;;;;;5055651;28;20052;-39
2023/04/24 12:42:35;;;;;;;3.20;0.50;;;9.50;99.90;;;;;;5073530;28;20488;-40
2023/04/24 12:45:05;;;;;;;2.67;0.43;;;9.50;99.90;;;;;;5072331;28;20480;-40
2023/04/24 12:47:32;;;;;;;3.03;0.60;;;9.60;99.90;;;;;;5073361;28;20053;-40
2023/04/24 12:49:59;;;;;;;1.48;0.47;;;9.80;99.90;;;;;;5073346;28;20076;-39
2023/04/24 12:52:27;;;;;;;1.40;0.65;;;9.90;99.90;;;;;;5073089;28;20480;-40
2023/04/24 12:54:54;;;;;;;2.15;0.43;;;10.00;99.90;;;;;;5073199;28;20060;-40